Terminal Aerodrome Forecast
Issued by NWS

Current Version | Previous Version | Text Only | Print | Product List | Glossary On
Versions: 1 2 3 4 5 6 7 8 9 10 11 12 13 14 15
000
FTUS44 KLIX 230500
TAFMSY
TAF
KMSY 230525Z 2306/2406 10011KT 3SM BR OVC003
     FM230900 13012KT 3SM -SHRA OVC004
      TEMPO 2310/2314 VRB35KT 1SM +TSRA BKN006CB
     FM231400 18013KT 3SM -SHRA OVC008
     FM231800 22017KT P6SM SCT025=

USA.gov is the U.S. government's official web portal to all federal, state and local government web resources and services.